You are listening to:
EPWA Approach #1 - Warsaw, Poland

EPWA 082030Z 04005KT CAVOK 27/15 Q1020 NOSIG

If stream doesn't start automatically press the play button
If stream stops then reload player then press play